sensor_id;sensor_type;location;lat;lon;timestamp;P1;durP1;ratioP1;P2;durP2;ratioP2
6626;SDS011;3349;49.830;8.748;2023-07-22T00:00:33;4.10;;;3.50;;
6626;SDS011;3349;49.830;8.748;2023-07-22T00:03:01;4.60;;;3.33;;
6626;SDS011;3349;49.830;8.748;2023-07-22T00:05:27;3.80;;;3.22;;
6626;SDS011;3349;49.830;8.748;2023-07-22T00:07:54;3.50;;;3.20;;
6626;SDS011;3349;49.830;8.748;2023-07-22T00:10:22;5.30;;;3.30;;
6626;SDS011;3349;49.830;8.748;2023-07-22T00:12:49;5.72;;;3.75;;
6626;SDS011;3349;49.830;8.748;2023-07-22T00:15:16;4.95;;;3.38;;
6626;SDS011;3349;49.830;8.748;2023-07-22T00:17:43;6.85;;;3.40;;
6626;SDS011;3349;49.830;8.748;2023-07-22T00:20:10;4.28;;;3.88;;
6626;SDS011;3349;49.830;8.748;2023-07-22T00:22:37;4.03;;;3.55;;
6626;SDS011;3349;49.830;8.748;2023-07-22T00:25:05;3.83;;;3.42;;
6626;SDS011;3349;49.830;8.748;2023-07-22T00:27:34;4.63;;;3.40;;
6626;SDS011;3349;49.830;8.748;2023-07-22T00:30:01;3.47;;;3.05;;
6626;SDS011;3349;49.830;8.748;2023-07-22T00:32:28;5.07;;;3.28;;
6626;SDS011;3349;49.830;8.748;2023-07-22T00:34:54;3.90;;;3.60;;
6626;SDS011;3349;49.830;8.748;2023-07-22T00:37:21;5.13;;;3.95;;
6626;SDS011;3349;49.830;8.748;2023-07-22T00:39:48;7.40;;;3.40;;
6626;SDS011;3349;49.830;8.748;2023-07-22T00:42:15;4.53;;;3.78;;
6626;SDS011;3349;49.830;8.748;2023-07-22T00:44:43;4.63;;;3.53;;
6626;SDS011;3349;49.830;8.748;2023-07-22T00:47:10;4.05;;;3.20;;
6626;SDS011;3349;49.830;8.748;2023-07-22T00:49:37;4.10;;;3.50;;
6626;SDS011;3349;49.830;8.748;2023-07-22T00:52:04;3.67;;;3.38;;
6626;SDS011;3349;49.830;8.748;2023-07-22T00:54:31;4.22;;;3.45;;
6626;SDS011;3349;49.830;8.748;2023-07-22T00:56:58;4.25;;;3.75;;
6626;SDS011;3349;49.830;8.748;2023-07-22T00:59:25;3.83;;;3.40;;
6626;SDS011;3349;49.830;8.748;2023-07-22T01:01:53;4.57;;;3.67;;
6626;SDS011;3349;49.830;8.748;2023-07-22T01:04:20;5.05;;;3.60;;
6626;SDS011;3349;49.830;8.748;2023-07-22T01:06:49;4.47;;;3.25;;
6626;SDS011;3349;49.830;8.748;2023-07-22T01:09:18;4.05;;;3.65;;
6626;SDS011;3349;49.830;8.748;2023-07-22T01:11:44;3.88;;;3.47;;
6626;SDS011;3349;49.830;8.748;2023-07-22T01:14:11;5.82;;;3.70;;
6626;SDS011;3349;49.830;8.748;2023-07-22T01:16:38;4.68;;;3.70;;
6626;SDS011;3349;49.830;8.748;2023-07-22T01:19:07;3.90;;;3.50;;
6626;SDS011;3349;49.830;8.748;2023-07-22T01:21:35;4.25;;;3.22;;
6626;SDS011;3349;49.830;8.748;2023-07-22T01:24:04;4.53;;;3.15;;
6626;SDS011;3349;49.830;8.748;2023-07-22T01:26:31;4.15;;;3.75;;
6626;SDS011;3349;49.830;8.748;2023-07-22T01:29:02;4.88;;;3.97;;
6626;SDS011;3349;49.830;8.748;2023-07-22T01:31:30;4.00;;;3.60;;
6626;SDS011;3349;49.830;8.748;2023-07-22T01:34:00;5.65;;;4.10;;
6626;SDS011;3349;49.830;8.748;2023-07-22T01:36:27;4.20;;;3.80;;
6626;SDS011;3349;49.830;8.748;2023-07-22T01:38:54;4.95;;;3.58;;
6626;SDS011;3349;49.830;8.748;2023-07-22T01:41:22;6.97;;;3.60;;
6626;SDS011;3349;49.830;8.748;2023-07-22T01:43:49;3.97;;;3.55;;
6626;SDS011;3349;49.830;8.748;2023-07-22T01:46:15;4.97;;;3.67;;
6626;SDS011;3349;49.830;8.748;2023-07-22T01:48:42;5.72;;;3.70;;
6626;SDS011;3349;49.830;8.748;2023-07-22T01:51:09;4.35;;;3.45;;
6626;SDS011;3349;49.830;8.748;2023-07-22T01:53:36;3.97;;;3.67;;
6626;SDS011;3349;49.830;8.748;2023-07-22T01:56:03;4.10;;;3.70;;
6626;SDS011;3349;49.830;8.748;2023-07-22T01:58:31;4.20;;;3.80;;
6626;SDS011;3349;49.830;8.748;2023-07-22T02:00:58;4.38;;;3.60;;
6626;SDS011;3349;49.830;8.748;2023-07-22T02:03:25;4.90;;;3.80;;
6626;SDS011;3349;49.830;8.748;2023-07-22T02:05:52;5.20;;;3.95;;
6626;SDS011;3349;49.830;8.748;2023-07-22T02:08:19;4.03;;;3.63;;
6626;SDS011;3349;49.830;8.748;2023-07-22T02:10:46;3.85;;;3.55;;
6626;SDS011;3349;49.830;8.748;2023-07-22T02:13:12;4.05;;;3.67;;
6626;SDS011;3349;49.830;8.748;2023-07-22T02:15:42;4.72;;;3.53;;
6626;SDS011;3349;49.830;8.748;2023-07-22T02:18:08;3.78;;;3.42;;
6626;SDS011;3349;49.830;8.748;2023-07-22T02:20:35;4.30;;;3.90;;
6626;SDS011;3349;49.830;8.748;2023-07-22T02:23:02;4.28;;;3.70;;
6626;SDS011;3349;49.830;8.748;2023-07-22T02:25:28;4.47;;;3.92;;
6626;SDS011;3349;49.830;8.748;2023-07-22T02:27:55;4.60;;;3.80;;
6626;SDS011;3349;49.830;8.748;2023-07-22T02:30:22;3.92;;;3.60;;
6626;SDS011;3349;49.830;8.748;2023-07-22T02:32:50;4.82;;;3.53;;
6626;SDS011;3349;49.830;8.748;2023-07-22T02:35:17;5.43;;;4.15;;
6626;SDS011;3349;49.830;8.748;2023-07-22T02:37:44;4.60;;;3.78;;
6626;SDS011;3349;49.830;8.748;2023-07-22T02:40:11;4.32;;;3.92;;
6626;SDS011;3349;49.830;8.748;2023-07-22T02:42:38;5.80;;;4.28;;
6626;SDS011;3349;49.830;8.748;2023-07-22T02:45:06;6.00;;;4.35;;
6626;SDS011;3349;49.830;8.748;2023-07-22T02:47:34;5.75;;;4.32;;
6626;SDS011;3349;49.830;8.748;2023-07-22T02:50:02;6.25;;;3.55;;
6626;SDS011;3349;49.830;8.748;2023-07-22T02:52:30;4.70;;;4.28;;
6626;SDS011;3349;49.830;8.748;2023-07-22T02:55:07;5.32;;;4.00;;
6626;SDS011;3349;49.830;8.748;2023-07-22T02:57:36;4.15;;;3.78;;
6626;SDS011;3349;49.830;8.748;2023-07-22T03:00:03;5.45;;;3.85;;
6626;SDS011;3349;49.830;8.748;2023-07-22T03:02:33;5.68;;;4.13;;
6626;SDS011;3349;49.830;8.748;2023-07-22T03:05:00;5.13;;;3.90;;
6626;SDS011;3349;49.830;8.748;2023-07-22T03:07:28;6.32;;;4.00;;
6626;SDS011;3349;49.830;8.748;2023-07-22T03:09:55;4.30;;;3.88;;
6626;SDS011;3349;49.830;8.748;2023-07-22T03:12:22;5.40;;;3.65;;
6626;SDS011;3349;49.830;8.748;2023-07-22T03:14:48;5.13;;;3.80;;
6626;SDS011;3349;49.830;8.748;2023-07-22T03:17:17;4.88;;;4.15;;
6626;SDS011;3349;49.830;8.748;2023-07-22T03:19:44;4.53;;;4.13;;
6626;SDS011;3349;49.830;8.748;2023-07-22T03:22:10;5.10;;;4.32;;
6626;SDS011;3349;49.830;8.748;2023-07-22T03:24:42;7.13;;;4.22;;
6626;SDS011;3349;49.830;8.748;2023-07-22T03:27:09;4.55;;;4.15;;
6626;SDS011;3349;49.830;8.748;2023-07-22T03:29:36;7.10;;;4.00;;
6626;SDS011;3349;49.830;8.748;2023-07-22T03:32:06;5.05;;;4.22;;
6626;SDS011;3349;49.830;8.748;2023-07-22T03:34:34;4.07;;;3.75;;
6626;SDS011;3349;49.830;8.748;2023-07-22T03:37:01;4.75;;;4.30;;
6626;SDS011;3349;49.830;8.748;2023-07-22T03:39:28;5.53;;;3.90;;
6626;SDS011;3349;49.830;8.748;2023-07-22T03:41:56;4.70;;;4.18;;
6626;SDS011;3349;49.830;8.748;2023-07-22T03:44:22;6.30;;;4.40;;
6626;SDS011;3349;49.830;8.748;2023-07-22T03:46:51;4.60;;;4.20;;
6626;SDS011;3349;49.830;8.748;2023-07-22T03:49:17;4.90;;;4.40;;
6626;SDS011;3349;49.830;8.748;2023-07-22T03:51:44;4.60;;;4.20;;
6626;SDS011;3349;49.830;8.748;2023-07-22T03:54:11;4.18;;;3.75;;
6626;SDS011;3349;49.830;8.748;2023-07-22T03:56:39;5.15;;;4.60;;
6626;SDS011;3349;49.830;8.748;2023-07-22T03:59:08;4.80;;;4.38;;
6626;SDS011;3349;49.830;8.748;2023-07-22T04:01:35;5.28;;;4.40;;
6626;SDS011;3349;49.830;8.748;2023-07-22T04:04:01;7.30;;;4.38;;
6626;SDS011;3349;49.830;8.748;2023-07-22T04:06:28;6.45;;;4.55;;
6626;SDS011;3349;49.830;8.748;2023-07-22T04:08:55;6.68;;;4.47;;
6626;SDS011;3349;49.830;8.748;2023-07-22T04:11:22;4.93;;;4.43;;
6626;SDS011;3349;49.830;8.748;2023-07-22T04:13:48;5.93;;;4.20;;
6626;SDS011;3349;49.830;8.748;2023-07-22T04:16:16;7.80;;;4.03;;
6626;SDS011;3349;49.830;8.748;2023-07-22T04:18:43;5.82;;;4.75;;
6626;SDS011;3349;49.830;8.748;2023-07-22T04:21:10;5.10;;;4.28;;
6626;SDS011;3349;49.830;8.748;2023-07-22T04:23:36;5.25;;;4.65;;
6626;SDS011;3349;49.830;8.748;2023-07-22T04:26:03;4.95;;;4.25;;
6626;SDS011;3349;49.830;8.748;2023-07-22T04:28:32;5.20;;;4.70;;
6626;SDS011;3349;49.830;8.748;2023-07-22T04:30:59;4.88;;;4.47;;
6626;SDS011;3349;49.830;8.748;2023-07-22T04:33:27;5.47;;;4.75;;
6626;SDS011;3349;49.830;8.748;2023-07-22T04:35:55;7.10;;;4.93;;
6626;SDS011;3349;49.830;8.748;2023-07-22T04:38:23;6.97;;;5.28;;
6626;SDS011;3349;49.830;8.748;2023-07-22T04:40:50;5.65;;;4.80;;
6626;SDS011;3349;49.830;8.748;2023-07-22T04:43:17;5.57;;;5.07;;
6626;SDS011;3349;49.830;8.748;2023-07-22T04:45:44;6.07;;;5.03;;
6626;SDS011;3349;49.830;8.748;2023-07-22T04:48:12;6.40;;;5.10;;
6626;SDS011;3349;49.830;8.748;2023-07-22T04:50:41;6.53;;;5.25;;
6626;SDS011;3349;49.830;8.748;2023-07-22T04:53:10;6.72;;;5.35;;
6626;SDS011;3349;49.830;8.748;2023-07-22T04:55:38;6.45;;;4.57;;
6626;SDS011;3349;49.830;8.748;2023-07-22T04:58:04;6.25;;;4.93;;
6626;SDS011;3349;49.830;8.748;2023-07-22T05:00:31;4.75;;;4.25;;
6626;SDS011;3349;49.830;8.748;2023-07-22T05:02:58;6.85;;;4.60;;
6626;SDS011;3349;49.830;8.748;2023-07-22T05:05:25;6.68;;;4.70;;
6626;SDS011;3349;49.830;8.748;2023-07-22T05:07:53;6.03;;;4.68;;
6626;SDS011;3349;49.830;8.748;2023-07-22T05:10:21;5.22;;;4.57;;
6626;SDS011;3349;49.830;8.748;2023-07-22T05:12:48;5.40;;;4.60;;
6626;SDS011;3349;49.830;8.748;2023-07-22T05:15:15;6.70;;;4.28;;
6626;SDS011;3349;49.830;8.748;2023-07-22T05:17:42;5.03;;;4.63;;
6626;SDS011;3349;49.830;8.748;2023-07-22T05:20:09;9.70;;;5.40;;
6626;SDS011;3349;49.830;8.748;2023-07-22T05:22:37;5.32;;;4.82;;
6626;SDS011;3349;49.830;8.748;2023-07-22T05:25:06;6.60;;;4.90;;
6626;SDS011;3349;49.830;8.748;2023-07-22T05:27:34;5.85;;;4.80;;
6626;SDS011;3349;49.830;8.748;2023-07-22T05:30:01;5.32;;;4.75;;
6626;SDS011;3349;49.830;8.748;2023-07-22T05:32:28;5.82;;;5.05;;
6626;SDS011;3349;49.830;8.748;2023-07-22T05:34:55;5.40;;;4.90;;
6626;SDS011;3349;49.830;8.748;2023-07-22T05:37:22;5.72;;;4.78;;
6626;SDS011;3349;49.830;8.748;2023-07-22T05:39:49;7.68;;;5.47;;
6626;SDS011;3349;49.830;8.748;2023-07-22T05:42:18;6.00;;;5.30;;
6626;SDS011;3349;49.830;8.748;2023-07-22T05:44:45;5.65;;;4.82;;
6626;SDS011;3349;49.830;8.748;2023-07-22T05:47:12;6.95;;;5.22;;
6626;SDS011;3349;49.830;8.748;2023-07-22T05:49:39;5.68;;;4.47;;
6626;SDS011;3349;49.830;8.748;2023-07-22T05:52:06;5.97;;;4.57;;
6626;SDS011;3349;49.830;8.748;2023-07-22T05:54:33;5.38;;;4.72;;
6626;SDS011;3349;49.830;8.748;2023-07-22T05:56:59;6.57;;;4.38;;
6626;SDS011;3349;49.830;8.748;2023-07-22T05:59:27;5.70;;;4.82;;
6626;SDS011;3349;49.830;8.748;2023-07-22T06:01:54;5.72;;;4.10;;
6626;SDS011;3349;49.830;8.748;2023-07-22T06:04:21;5.45;;;4.32;;
6626;SDS011;3349;49.830;8.748;2023-07-22T06:06:48;4.55;;;4.15;;
6626;SDS011;3349;49.830;8.748;2023-07-22T06:09:14;4.90;;;4.40;;
6626;SDS011;3349;49.830;8.748;2023-07-22T06:11:41;5.47;;;4.32;;
6626;SDS011;3349;49.830;8.748;2023-07-22T06:14:08;5.13;;;4.28;;
6626;SDS011;3349;49.830;8.748;2023-07-22T06:16:36;5.70;;;4.35;;
6626;SDS011;3349;49.830;8.748;2023-07-22T06:19:03;6.75;;;4.38;;
6626;SDS011;3349;49.830;8.748;2023-07-22T06:21:30;5.03;;;4.20;;
6626;SDS011;3349;49.830;8.748;2023-07-22T06:23:56;5.35;;;4.60;;
6626;SDS011;3349;49.830;8.748;2023-07-22T06:26:23;6.30;;;4.70;;
6626;SDS011;3349;49.830;8.748;2023-07-22T06:28:50;4.68;;;3.92;;
6626;SDS011;3349;49.830;8.748;2023-07-22T06:31:16;4.78;;;4.35;;
6626;SDS011;3349;49.830;8.748;2023-07-22T06:33:45;4.93;;;4.35;;
6626;SDS011;3349;49.830;8.748;2023-07-22T06:36:12;4.18;;;3.78;;
6626;SDS011;3349;49.830;8.748;2023-07-22T06:38:38;4.80;;;4.30;;
6626;SDS011;3349;49.830;8.748;2023-07-22T06:41:05;5.15;;;3.90;;
6626;SDS011;3349;49.830;8.748;2023-07-22T06:43:32;4.45;;;4.05;;
6626;SDS011;3349;49.830;8.748;2023-07-22T06:45:59;4.78;;;4.20;;
6626;SDS011;3349;49.830;8.748;2023-07-22T06:48:26;4.38;;;3.97;;
6626;SDS011;3349;49.830;8.748;2023-07-22T06:50:53;4.68;;;4.07;;
6626;SDS011;3349;49.830;8.748;2023-07-22T06:53:20;4.30;;;3.90;;
6626;SDS011;3349;49.830;8.748;2023-07-22T06:55:50;6.05;;;3.88;;
6626;SDS011;3349;49.830;8.748;2023-07-22T06:58:18;4.43;;;3.75;;
6626;SDS011;3349;49.830;8.748;2023-07-22T07:00:45;3.92;;;3.58;;
6626;SDS011;3349;49.830;8.748;2023-07-22T07:03:12;5.50;;;4.47;;
6626;SDS011;3349;49.830;8.748;2023-07-22T07:05:38;8.50;;;4.22;;
6626;SDS011;3349;49.830;8.748;2023-07-22T07:08:08;5.80;;;4.18;;
6626;SDS011;3349;49.830;8.748;2023-07-22T07:10:36;4.72;;;4.22;;
6626;SDS011;3349;49.830;8.748;2023-07-22T07:13:04;6.05;;;4.40;;
6626;SDS011;3349;49.830;8.748;2023-07-22T07:15:30;4.40;;;4.00;;
6626;SDS011;3349;49.830;8.748;2023-07-22T07:17:57;5.47;;;4.10;;
6626;SDS011;3349;49.830;8.748;2023-07-22T07:20:24;6.80;;;4.53;;
6626;SDS011;3349;49.830;8.748;2023-07-22T07:22:51;5.43;;;4.07;;
6626;SDS011;3349;49.830;8.748;2023-07-22T07:25:19;4.53;;;4.13;;
6626;SDS011;3349;49.830;8.748;2023-07-22T07:27:45;8.68;;;4.35;;
6626;SDS011;3349;49.830;8.748;2023-07-22T07:30:12;5.55;;;3.70;;
6626;SDS011;3349;49.830;8.748;2023-07-22T07:32:39;6.85;;;3.85;;
6626;SDS011;3349;49.830;8.748;2023-07-22T07:35:06;4.15;;;3.78;;
6626;SDS011;3349;49.830;8.748;2023-07-22T07:37:34;6.78;;;4.30;;
6626;SDS011;3349;49.830;8.748;2023-07-22T07:40:01;8.38;;;4.22;;
6626;SDS011;3349;49.830;8.748;2023-07-22T07:42:30;4.40;;;4.00;;
6626;SDS011;3349;49.830;8.748;2023-07-22T07:44:57;4.82;;;4.28;;
6626;SDS011;3349;49.830;8.748;2023-07-22T07:47:23;8.23;;;4.88;;
6626;SDS011;3349;49.830;8.748;2023-07-22T07:49:50;5.28;;;4.38;;
6626;SDS011;3349;49.830;8.748;2023-07-22T07:52:17;4.57;;;4.15;;
6626;SDS011;3349;49.830;8.748;2023-07-22T07:54:43;4.70;;;4.10;;
6626;SDS011;3349;49.830;8.748;2023-07-22T07:57:10;5.68;;;3.90;;
6626;SDS011;3349;49.830;8.748;2023-07-22T07:59:38;7.13;;;4.40;;
6626;SDS011;3349;49.830;8.748;2023-07-22T08:02:06;6.18;;;4.32;;
6626;SDS011;3349;49.830;8.748;2023-07-22T08:04:34;6.35;;;4.50;;
6626;SDS011;3349;49.830;8.748;2023-07-22T08:07:01;4.55;;;4.15;;
6626;SDS011;3349;49.830;8.748;2023-07-22T08:09:29;5.93;;;4.10;;
6626;SDS011;3349;49.830;8.748;2023-07-22T08:11:56;5.70;;;4.03;;
6626;SDS011;3349;49.830;8.748;2023-07-22T08:14:23;5.68;;;4.40;;
6626;SDS011;3349;49.830;8.748;2023-07-22T08:16:51;5.32;;;4.63;;
6626;SDS011;3349;49.830;8.748;2023-07-22T08:19:18;8.73;;;4.53;;
6626;SDS011;3349;49.830;8.748;2023-07-22T08:21:45;4.97;;;4.47;;
6626;SDS011;3349;49.830;8.748;2023-07-22T08:24:11;6.55;;;4.50;;
6626;SDS011;3349;49.830;8.748;2023-07-22T08:26:38;6.32;;;4.68;;
6626;SDS011;3349;49.830;8.748;2023-07-22T08:29:06;5.93;;;4.22;;
6626;SDS011;3349;49.830;8.748;2023-07-22T08:31:33;5.82;;;4.10;;
6626;SDS011;3349;49.830;8.748;2023-07-22T08:34:02;6.53;;;4.20;;
6626;SDS011;3349;49.830;8.748;2023-07-22T08:36:29;7.30;;;4.68;;
6626;SDS011;3349;49.830;8.748;2023-07-22T08:38:56;6.82;;;4.72;;
6626;SDS011;3349;49.830;8.748;2023-07-22T08:41:23;5.50;;;4.38;;
6626;SDS011;3349;49.830;8.748;2023-07-22T08:43:51;4.47;;;4.07;;
6626;SDS011;3349;49.830;8.748;2023-07-22T08:46:20;5.00;;;4.45;;
6626;SDS011;3349;49.830;8.748;2023-07-22T08:48:49;5.00;;;4.35;;
6626;SDS011;3349;49.830;8.748;2023-07-22T08:51:21;5.47;;;4.80;;
6626;SDS011;3349;49.830;8.748;2023-07-22T08:53:49;6.55;;;4.47;;
6626;SDS011;3349;49.830;8.748;2023-07-22T08:56:17;5.32;;;4.35;;
6626;SDS011;3349;49.830;8.748;2023-07-22T08:58:45;5.25;;;4.45;;
6626;SDS011;3349;49.830;8.748;2023-07-22T09:01:14;7.88;;;5.95;;
6626;SDS011;3349;49.830;8.748;2023-07-22T09:03:41;4.57;;;4.18;;
6626;SDS011;3349;49.830;8.748;2023-07-22T09:06:08;5.38;;;4.55;;
6626;SDS011;3349;49.830;8.748;2023-07-22T09:08:38;6.15;;;4.05;;
6626;SDS011;3349;49.830;8.748;2023-07-22T09:11:05;10.60;;;5.35;;
6626;SDS011;3349;49.830;8.748;2023-07-22T09:13:32;4.75;;;4.20;;
6626;SDS011;3349;49.830;8.748;2023-07-22T09:16:02;4.28;;;3.88;;
6626;SDS011;3349;49.830;8.748;2023-07-22T09:18:32;4.93;;;3.85;;
6626;SDS011;3349;49.830;8.748;2023-07-22T09:20:59;4.93;;;4.53;;
6626;SDS011;3349;49.830;8.748;2023-07-22T09:23:32;4.65;;;3.75;;
6626;SDS011;3349;49.830;8.748;2023-07-22T09:26:09;5.75;;;3.72;;
6626;SDS011;3349;49.830;8.748;2023-07-22T09:31:22;6.00;;;3.67;;
6626;SDS011;3349;49.830;8.748;2023-07-22T09:33:50;5.25;;;4.13;;
6626;SDS011;3349;49.830;8.748;2023-07-22T09:36:19;5.70;;;4.07;;
6626;SDS011;3349;49.830;8.748;2023-07-22T09:38:47;7.13;;;4.05;;
6626;SDS011;3349;49.830;8.748;2023-07-22T09:41:28;6.57;;;3.95;;
6626;SDS011;3349;49.830;8.748;2023-07-22T09:43:55;5.07;;;3.40;;
6626;SDS011;3349;49.830;8.748;2023-07-22T09:46:22;3.75;;;3.45;;
6626;SDS011;3349;49.830;8.748;2023-07-22T09:48:59;3.75;;;3.45;;
6626;SDS011;3349;49.830;8.748;2023-07-22T09:51:32;3.85;;;3.50;;
6626;SDS011;3349;49.830;8.748;2023-07-22T09:54:00;4.20;;;3.70;;
6626;SDS011;3349;49.830;8.748;2023-07-22T09:56:29;4.25;;;3.85;;
6626;SDS011;3349;49.830;8.748;2023-07-22T09:58:56;4.85;;;3.63;;
6626;SDS011;3349;49.830;8.748;2023-07-22T10:01:25;7.43;;;3.60;;
6626;SDS011;3349;49.830;8.748;2023-07-22T10:03:53;4.55;;;3.85;;
6626;SDS011;3349;49.830;8.748;2023-07-22T10:06:21;4.50;;;4.10;;
6626;SDS011;3349;49.830;8.748;2023-07-22T10:08:49;4.72;;;3.95;;
6626;SDS011;3349;49.830;8.748;2023-07-22T10:11:17;5.32;;;3.55;;
6626;SDS011;3349;49.830;8.748;2023-07-22T10:13:46;5.15;;;4.28;;
6626;SDS011;3349;49.830;8.748;2023-07-22T10:16:13;4.20;;;3.80;;
6626;SDS011;3349;49.830;8.748;2023-07-22T10:18:42;4.63;;;3.83;;
6626;SDS011;3349;49.830;8.748;2023-07-22T10:21:10;4.82;;;3.92;;
6626;SDS011;3349;49.830;8.748;2023-07-22T10:23:37;4.18;;;3.78;;
6626;SDS011;3349;49.830;8.748;2023-07-22T10:26:04;6.65;;;3.92;;
6626;SDS011;3349;49.830;8.748;2023-07-22T10:28:32;6.78;;;3.83;;
6626;SDS011;3349;49.830;8.748;2023-07-22T10:31:00;5.47;;;4.03;;
6626;SDS011;3349;49.830;8.748;2023-07-22T10:33:27;4.30;;;3.85;;
6626;SDS011;3349;49.830;8.748;2023-07-22T10:36:04;4.80;;;4.30;;
6626;SDS011;3349;49.830;8.748;2023-07-22T10:38:32;4.25;;;3.85;;
6626;SDS011;3349;49.830;8.748;2023-07-22T10:41:00;4.30;;;3.90;;
6626;SDS011;3349;49.830;8.748;2023-07-22T10:43:27;5.05;;;4.10;;
6626;SDS011;3349;49.830;8.748;2023-07-22T10:45:57;5.43;;;4.10;;
6626;SDS011;3349;49.830;8.748;2023-07-22T10:48:26;4.70;;;4.30;;
6626;SDS011;3349;49.830;8.748;2023-07-22T10:51:04;6.40;;;4.15;;
6626;SDS011;3349;49.830;8.748;2023-07-22T10:53:32;7.28;;;3.92;;
6626;SDS011;3349;49.830;8.748;2023-07-22T10:56:05;5.20;;;3.97;;
6626;SDS011;3349;49.830;8.748;2023-07-22T11:01:33;4.88;;;3.90;;
6626;SDS011;3349;49.830;8.748;2023-07-22T11:04:04;5.22;;;4.50;;
6626;SDS011;3349;49.830;8.748;2023-07-22T11:06:32;7.18;;;4.43;;
6626;SDS011;3349;49.830;8.748;2023-07-22T11:08:59;4.78;;;3.97;;
6626;SDS011;3349;49.830;8.748;2023-07-22T11:11:34;4.85;;;4.07;;
6626;SDS011;3349;49.830;8.748;2023-07-22T11:14:12;4.20;;;3.67;;
6626;SDS011;3349;49.830;8.748;2023-07-22T11:16:44;4.40;;;4.00;;
6626;SDS011;3349;49.830;8.748;2023-07-22T11:19:14;5.32;;;4.28;;
6626;SDS011;3349;49.830;8.748;2023-07-22T11:21:41;7.07;;;4.13;;
6626;SDS011;3349;49.830;8.748;2023-07-22T11:24:08;4.65;;;4.10;;
6626;SDS011;3349;49.830;8.748;2023-07-22T11:26:35;4.90;;;4.50;;
6626;SDS011;3349;49.830;8.748;2023-07-22T11:29:04;4.70;;;4.30;;
6626;SDS011;3349;49.830;8.748;2023-07-22T11:31:31;4.30;;;3.90;;
6626;SDS011;3349;49.830;8.748;2023-07-22T11:33:58;4.38;;;3.97;;
6626;SDS011;3349;49.830;8.748;2023-07-22T11:36:26;5.90;;;4.22;;
6626;SDS011;3349;49.830;8.748;2023-07-22T11:38:53;4.90;;;4.47;;
6626;SDS011;3349;49.830;8.748;2023-07-22T11:41:20;6.30;;;3.92;;
6626;SDS011;3349;49.830;8.748;2023-07-22T11:43:47;4.60;;;4.13;;
6626;SDS011;3349;49.830;8.748;2023-07-22T11:46:14;5.60;;;4.20;;
6626;SDS011;3349;49.830;8.748;2023-07-22T11:48:48;5.00;;;4.25;;
6626;SDS011;3349;49.830;8.748;2023-07-22T11:51:16;4.60;;;4.05;;
6626;SDS011;3349;49.830;8.748;2023-07-22T11:53:47;6.68;;;3.65;;
6626;SDS011;3349;49.830;8.748;2023-07-22T11:56:17;6.20;;;4.05;;
6626;SDS011;3349;49.830;8.748;2023-07-22T11:58:48;7.35;;;4.13;;
6626;SDS011;3349;49.830;8.748;2023-07-22T12:01:15;5.90;;;4.18;;
6626;SDS011;3349;49.830;8.748;2023-07-22T12:03:42;5.22;;;4.32;;
6626;SDS011;3349;49.830;8.748;2023-07-22T12:06:09;5.82;;;4.38;;
6626;SDS011;3349;49.830;8.748;2023-07-22T12:08:36;4.43;;;4.00;;
6626;SDS011;3349;49.830;8.748;2023-07-22T12:11:10;5.60;;;4.10;;
6626;SDS011;3349;49.830;8.748;2023-07-22T12:13:42;4.60;;;4.10;;
6626;SDS011;3349;49.830;8.748;2023-07-22T12:16:11;5.53;;;4.20;;
6626;SDS011;3349;49.830;8.748;2023-07-22T12:18:42;4.95;;;4.45;;
6626;SDS011;3349;49.830;8.748;2023-07-22T12:21:10;6.05;;;4.10;;
6626;SDS011;3349;49.830;8.748;2023-07-22T12:23:37;4.63;;;4.00;;
6626;SDS011;3349;49.830;8.748;2023-07-22T12:26:04;4.70;;;4.18;;
6626;SDS011;3349;49.830;8.748;2023-07-22T12:28:32;6.13;;;4.53;;
6626;SDS011;3349;49.830;8.748;2023-07-22T12:30:59;5.40;;;4.13;;
6626;SDS011;3349;49.830;8.748;2023-07-22T12:33:26;5.90;;;4.22;;
6626;SDS011;3349;49.830;8.748;2023-07-22T12:35:53;5.35;;;4.28;;
6626;SDS011;3349;49.830;8.748;2023-07-22T12:38:20;7.00;;;4.25;;
6626;SDS011;3349;49.830;8.748;2023-07-22T12:40:47;4.50;;;4.10;;
6626;SDS011;3349;49.830;8.748;2023-07-22T12:43:13;4.00;;;3.60;;
6626;SDS011;3349;49.830;8.748;2023-07-22T12:45:42;6.88;;;4.82;;
6626;SDS011;3349;49.830;8.748;2023-07-22T12:48:08;4.28;;;3.88;;
6626;SDS011;3349;49.830;8.748;2023-07-22T12:50:35;4.53;;;4.13;;
6626;SDS011;3349;49.830;8.748;2023-07-22T12:53:02;4.47;;;3.88;;
6626;SDS011;3349;49.830;8.748;2023-07-22T12:55:29;4.35;;;3.95;;
6626;SDS011;3349;49.830;8.748;2023-07-22T12:57:56;6.38;;;4.43;;
6626;SDS011;3349;49.830;8.748;2023-07-22T13:00:22;4.47;;;4.07;;
6626;SDS011;3349;49.830;8.748;2023-07-22T13:02:50;5.68;;;3.67;;
6626;SDS011;3349;49.830;8.748;2023-07-22T13:05:18;4.97;;;4.10;;
6626;SDS011;3349;49.830;8.748;2023-07-22T13:07:45;4.03;;;3.63;;
6626;SDS011;3349;49.830;8.748;2023-07-22T13:10:12;4.47;;;3.75;;
6626;SDS011;3349;49.830;8.748;2023-07-22T13:12:41;4.40;;;3.75;;
6626;SDS011;3349;49.830;8.748;2023-07-22T13:15:08;4.45;;;3.75;;
6626;SDS011;3349;49.830;8.748;2023-07-22T13:17:36;4.55;;;4.00;;
6626;SDS011;3349;49.830;8.748;2023-07-22T13:20:04;4.20;;;3.80;;
6626;SDS011;3349;49.830;8.748;2023-07-22T13:22:33;5.07;;;3.80;;
6626;SDS011;3349;49.830;8.748;2023-07-22T13:25:00;4.45;;;3.78;;
6626;SDS011;3349;49.830;8.748;2023-07-22T13:27:28;5.03;;;4.03;;
6626;SDS011;3349;49.830;8.748;2023-07-22T13:29:54;6.82;;;3.78;;
6626;SDS011;3349;49.830;8.748;2023-07-22T13:32:22;4.38;;;3.92;;
6626;SDS011;3349;49.830;8.748;2023-07-22T13:34:49;4.82;;;4.07;;
6626;SDS011;3349;49.830;8.748;2023-07-22T13:37:17;4.55;;;3.70;;
6626;SDS011;3349;49.830;8.748;2023-07-22T13:39:43;7.45;;;4.03;;
6626;SDS011;3349;49.830;8.748;2023-07-22T13:42:10;5.97;;;3.47;;
6626;SDS011;3349;49.830;8.748;2023-07-22T13:44:37;4.20;;;3.80;;
6626;SDS011;3349;49.830;8.748;2023-07-22T13:47:04;4.32;;;3.33;;
6626;SDS011;3349;49.830;8.748;2023-07-22T13:49:30;6.32;;;3.70;;
6626;SDS011;3349;49.830;8.748;2023-07-22T13:51:57;4.25;;;3.78;;
6626;SDS011;3349;49.830;8.748;2023-07-22T13:54:25;4.03;;;3.63;;
6626;SDS011;3349;49.830;8.748;2023-07-22T13:56:52;6.28;;;3.85;;
6626;SDS011;3349;49.830;8.748;2023-07-22T13:59:18;5.78;;;3.63;;
6626;SDS011;3349;49.830;8.748;2023-07-22T14:01:45;4.72;;;3.78;;
6626;SDS011;3349;49.830;8.748;2023-07-22T14:04:12;5.57;;;3.55;;
6626;SDS011;3349;49.830;8.748;2023-07-22T14:06:38;5.93;;;4.00;;
6626;SDS011;3349;49.830;8.748;2023-07-22T14:09:05;4.28;;;3.72;;
6626;SDS011;3349;49.830;8.748;2023-07-22T14:11:33;4.43;;;3.70;;
6626;SDS011;3349;49.830;8.748;2023-07-22T14:14:00;4.53;;;3.60;;
6626;SDS011;3349;49.830;8.748;2023-07-22T14:16:27;5.40;;;4.00;;
6626;SDS011;3349;49.830;8.748;2023-07-22T14:18:54;3.95;;;3.55;;
6626;SDS011;3349;49.830;8.748;2023-07-22T14:21:20;4.53;;;3.80;;
6626;SDS011;3349;49.830;8.748;2023-07-22T14:23:47;7.47;;;4.38;;
6626;SDS011;3349;49.830;8.748;2023-07-22T14:26:13;4.88;;;4.15;;
6626;SDS011;3349;49.830;8.748;2023-07-22T14:28:42;6.43;;;4.05;;
6626;SDS011;3349;49.830;8.748;2023-07-22T14:31:08;5.72;;;4.40;;
6626;SDS011;3349;49.830;8.748;2023-07-22T14:33:35;5.22;;;4.18;;
6626;SDS011;3349;49.830;8.748;2023-07-22T14:36:02;4.50;;;4.10;;
6626;SDS011;3349;49.830;8.748;2023-07-22T14:38:29;4.88;;;4.03;;
6626;SDS011;3349;49.830;8.748;2023-07-22T14:40:55;4.10;;;3.70;;
6626;SDS011;3349;49.830;8.748;2023-07-22T14:43:22;6.15;;;3.97;;
6626;SDS011;3349;49.830;8.748;2023-07-22T14:45:50;5.07;;;4.18;;
6626;SDS011;3349;49.830;8.748;2023-07-22T14:48:18;4.43;;;3.95;;
6626;SDS011;3349;49.830;8.748;2023-07-22T14:50:45;4.75;;;4.25;;
6626;SDS011;3349;49.830;8.748;2023-07-22T14:53:12;4.63;;;4.22;;
6626;SDS011;3349;49.830;8.748;2023-07-22T14:55:39;5.85;;;4.30;;
6626;SDS011;3349;49.830;8.748;2023-07-22T14:58:05;4.47;;;4.07;;
6626;SDS011;3349;49.830;8.748;2023-07-22T15:00:32;4.30;;;3.90;;
6626;SDS011;3349;49.830;8.748;2023-07-22T15:03:00;5.75;;;4.60;;
6626;SDS011;3349;49.830;8.748;2023-07-22T15:05:27;5.10;;;4.20;;
6626;SDS011;3349;49.830;8.748;2023-07-22T15:11:16;6.35;;;4.85;;
6626;SDS011;3349;49.830;8.748;2023-07-22T15:13:43;4.47;;;3.88;;
6626;SDS011;3349;49.830;8.748;2023-07-22T15:16:09;6.00;;;4.18;;
6626;SDS011;3349;49.830;8.748;2023-07-22T15:18:37;7.45;;;5.03;;
6626;SDS011;3349;49.830;8.748;2023-07-22T15:21:04;5.18;;;4.18;;
6626;SDS011;3349;49.830;8.748;2023-07-22T15:23:31;6.43;;;4.28;;
6626;SDS011;3349;49.830;8.748;2023-07-22T15:25:58;8.70;;;4.35;;